Surface observations / UK / EGOM

Quebec | Canada | USA | France | UK | Europe | Elsewhere

Display: Info & Location for EGOM | Help decoding METAR


Raw surface observations for station EGOM
EGOM 302050Z AUTO 24007KT 9999 NCD 09/07 Q1018=
EGOM 301950Z AUTO 25005KT 9999 BKN043/// 10/06 Q1018=
EGOM 301850Z AUTO 28006KT 9999 BKN043/// 13/06 Q1018=
EGOM 301750Z AUTO 27011KT 9999 BKN043/// 13/05 Q1018=
EGOM 301650Z AUTO 26011KT 9999 FEW037/// BKN043/// 13/05 Q1018=
EGOM 301550Z AUTO 26010KT 9999 SCT037/// BKN042/// 13/05 Q1018=
EGOM 301450Z AUTO 26011KT 9999 FEW035/// BKN045/// 13/06 Q1018=
EGOM 301350Z AUTO 26012KT 9999 FEW035/// BKN040/// 14/07 Q1017=
EGOM 301250Z AUTO 27011KT 9999 SCT030/// BKN046/// 13/06 Q1017=
EGOM 301150Z AUTO 25010KT 9999 FEW019/// SCT028/// BKN043/// 12/08 Q1017=
EGOM 301050Z AUTO 27005KT 9999 FEW019/// SCT042/// 12/08 Q1017=
EGOM 300950Z AUTO 33006KT 9999 BKN018/// SCT024/// 11/07 Q1017=
EGOM 300850Z AUTO 34006KT 9999 SCT017/// BKN033/// 10/07 Q1016=
EGOM 300750Z AUTO 35006KT 9999 BKN032/// SCT044/// 10/07 Q1016=
EGOM 300650Z AUTO 35004KT 9999 SCT026/// BKN045/// 09/08 Q1016 RERA=
EGOM 300550Z AUTO 31005KT 9999 SHRA FEW007/// BKN019/// BKN035/// 08/08 Q1015=
EGOM 300450Z AUTO 28004KT 9999 FEW030/// BKN050/// 08/07 Q1015=
EGOM 300350Z AUTO 26003KT 0750 FG FEW001/// BKN036/// BKN050/// 08/08 Q1014=
EGOM 300250Z AUTO 25001KT 9999 -SHRA SCT031/// BKN039/// 08/08 Q1014=
EGOM 300150Z AUTO 35001KT 9999 BKN034/// 08/08 Q1014 RERA=
EGOM 300050Z AUTO 02003KT 5000 RA FEW012/// BKN017/// 09/08 Q1014=
EGOM 292350Z AUTO 04003KT 9999 FEW023/// BKN048/// 09/08 Q1014=
EGOM 292250Z AUTO 04004KT 9999 SCT013/// BKN050/// BKN070/// 09/08 Q1013=
EGOM 292150Z AUTO 06002KT 9999 SCT019/// SCT037/// BKN050/// 10/09 Q1013=